Main page
METAR-TAF:

METAR-TAF

Airports :

Bordj Mokhtar Airport

Bordj Badji Mokhtar, Algeria

latitude: 21-22-30N, longitude: 000-55-26E, elevation: 396 m

Current weather observation

The report was made 26 minutes ago, at 17:00 UTC
Wind 2 kt from the East
Temperature 42°C
Humidity 14%
Pressure 1008 hPa
Visibility: 0800 m
sand

METAR: DATM 221700Z 10002KT 0800 SA VV/// 42/09 Q1008

Time: 18:26 (17:26 UTC)

Forecast

The report was made 3 hours and 26 minutes ago, at 14:00 UTC
Forecast valid from 22 at 15 UTC to 22 at 24 UTC
Wind 12 kt from the West/Southwest
Visibility: 0300 m
sand
Becoming
from 22 at 16 UTC to 22 at 18 UTC
Wind 10 kt from the East
Visibility: 0800 m
Becoming
from 22 at 19 UTC to 22 at 21 UTC
Visibility: 3000 m

TAF: DATM 221400Z 2215/2224 24012KT 0300 SA NSC BECMG 2216/2218 08010KT 0800 BECMG 2219/2221 3000

Weather observations and forecasts of more than 4000 airports (METAR and TAF reports).

The available stations are represented by yellow and red dots on the map.

Hover mouse over dot to see the name of the station.

Then click to see weather observations and forecasts.

To change the map : click on the green buttons with a black cross to zoom in, on the green button with a dash to zoom out, or on the green arrows for adjacent maps.


METAR-TAF: